• Join FlightAware (Why Join?)
  • Login
  • US Flag 
06:08AM EDT


 

Airport Tracker/Info


-or-


 

Live Flight TrackerFlight Track Log ✈ VH-NCA ✈ 17-Jul-2013 ✈ YCNK / CES - YSBK / BWU

Flight Track Log - Related Links

Times and Time Zones

All times are in EDT time to prevent confusion due to time zone crossing. See the VH-NCA flight status page for this flight to view local times or setup timezone preferences in your user account.

Time Position Orientation Groundspeed Altitude Reporting Facility
EDT Latitude Longitude Course Direction KTS MPH feet Rate Location/Type
06:07AM -32.7651 151.3431 64° Northeast 84 97 1,100  Level Aus ATC (RADAR)
06:08AM -32.7568 151.3636 64° Northeast 83 96 1,800 660 Climbing Aus ATC (RADAR)
06:09AM -32.7766 151.3639 179° South 102 117 2,200 660 Climbing Aus ATC (RADAR)
06:10AM -32.7922 151.3569 201° Southwest 96 110 2,700 660 Climbing Aus ATC (RADAR)
06:10AM -32.8078 151.3438 215° Southwest 91 105 3,200 540 Climbing Aus ATC (RADAR)
06:11AM -32.7806 151.3326 341° North 105 121 3,700 540 Climbing Aus ATC (RADAR)
06:12AM -32.7692 151.3430 37° Northeast 82 94 4,100 540 Climbing Aus ATC (RADAR)
06:13AM -32.7912 151.3524 160° South 128 147 4,400 480 Climbing Aus ATC (RADAR)
06:13AM -32.8066 151.3395 215° Southwest 121 139 4,700 420 Climbing Aus ATC (RADAR)
06:14AM -32.8166 151.3261 228° Southwest 109 125 4,900 420 Climbing Aus ATC (RADAR)
06:14AM -32.8328 151.3168 206° Southwest 109 125 5,200 600 Climbing Aus ATC (RADAR)
06:15AM -32.8576 151.3014 207° Southwest 107 123 5,800 420 Climbing Aus ATC (RADAR)
06:16AM -32.8849 151.2811 212° Southwest 124 143 6,000 120 Climbing Aus ATC (RADAR)
06:17AM -32.9072 151.2652 211° Southwest 137 158 6,000 60 Level Aus ATC (RADAR)
06:18AM -32.9278 151.2541 204° Southwest 139 160 6,100  Climbing Aus ATC (RADAR)
06:18AM -32.9467 151.2400 212° Southwest 136 157 6,000  Descending Aus ATC (RADAR)
06:19AM -32.9663 151.2273 209° Southwest 135 155 6,100 60 Climbing Aus ATC (RADAR)
06:19AM -32.9851 151.2137 211° Southwest 134 154 6,100 -120 Level Aus ATC (RADAR)
06:20AM -33.0155 151.1914 212° Southwest 140 161 6,000 -60 Descending Aus ATC (RADAR)
06:21AM -33.0429 151.1724 210° Southwest 136 157 6,000  Level Aus ATC (RADAR)
06:22AM -33.0681 151.1558 209° Southwest 138 159 6,000  Level Aus ATC (RADAR)
06:22AM -33.0877 151.1432 208° Southwest 136 157 6,000  Level Aus ATC (RADAR)
06:23AM -33.1089 151.1320 204° Southwest 141 162 6,000  Level Aus ATC (RADAR)
06:23AM -33.1248 151.1207 211° Southwest 134 154 6,000  Level Aus ATC (RADAR)
06:24AM -33.1437 151.1069 211° Southwest 133 153 6,000  Level Aus ATC (RADAR)
06:25AM -33.1729 151.0899 206° Southwest 138 159 6,000  Level Aus ATC (RADAR)
06:26AM -33.2113 151.0619 211° Southwest 138 159 6,000  Level Aus ATC (RADAR)
06:27AM -33.2300 151.0474 213° Southwest 136 157 6,000  Level Aus ATC (RADAR)
06:27AM -33.2486 151.0327 213° Southwest 137 158 6,000  Level Aus ATC (RADAR)
06:28AM -33.2724 151.0136 214° Southwest 135 155 6,000  Level Aus ATC (RADAR)
06:29AM -33.3041 150.9889 213° Southwest 134 154 6,000  Level Aus ATC (RADAR)
06:30AM -33.3248 150.9725 214° Southwest 134 154 6,000  Level Aus ATC (RADAR)
06:30AM -33.3461 150.9567 212° Southwest 134 154 6,000  Level Aus ATC (RADAR)
06:31AM -33.3751 150.9344 213° Southwest 133 153 6,000  Level Aus ATC (RADAR)
06:32AM -33.3944 150.9201 212° Southwest 137 158 6,000  Level Aus ATC (RADAR)
06:32AM -33.4125 150.9058 213° Southwest 134 154 6,000  Level Aus ATC (RADAR)
06:33AM -33.4319 150.8911 212° Southwest 140 161 6,000 -120 Level Aus ATC (RADAR)
06:34AM -33.4544 150.8760 209° Southwest 143 165 5,900 -420 Descending Aus ATC (RADAR)
06:34AM -33.4803 150.8630 203° Southwest 148 170 5,500 -540 Descending Aus ATC (RADAR)
06:35AM -33.5164 150.8349 213° Southwest 143 165 5,000 -540 Descending Aus ATC (RADAR)
06:36AM -33.5420 150.8158 212° Southwest 143 165 4,600 -540 Descending Aus ATC (RADAR)
06:37AM -33.5616 150.8002 214° Southwest 144 166 4,300 -540 Descending Aus ATC (RADAR)
06:37AM -33.5822 150.7862 210° Southwest 144 166 4,000 -480 Descending Aus ATC (RADAR)
06:38AM -33.5990 150.7735 212° Southwest 145 167 3,800 -480 Descending Aus ATC (RADAR)
06:38AM -33.6232 150.7742 179° South 148 170 3,500 -480 Descending Aus ATC (RADAR)
06:39AM -33.6458 150.7795 169° South 144 166 3,300 -360 Descending Aus ATC (RADAR)
06:40AM -33.6684 150.7823 174° South 140 161 3,100 -300 Descending Aus ATC (RADAR)
06:40AM -33.6910 150.7860 172° South 135 155 3,000 -300 Descending Aus ATC (RADAR)
06:41AM -33.7190 150.7907 172° South 132 152 2,700 -300 Descending Aus ATC (RADAR)
06:42AM -33.7529 150.7951 174° South 131 151 2,500 -60 Descending Aus ATC (RADAR)
06:43AM -33.7788 150.7979 175° South 121 139 2,600 60 Climbing Aus ATC (RADAR)
06:43AM -33.7977 150.8007 173° South 115 132 2,600  Level Aus ATC (RADAR)
06:44AM -33.8163 150.8039 172° South 115 132 2,600  Level Aus ATC (RADAR)
06:44AM -33.8307 150.8116 156° South 112 129 2,600  Level Aus ATC (RADAR)
06:45AM -33.8432 150.8284 132° Southeast 113 130 2,600 -120 Level Aus ATC (RADAR)
06:45AM -33.8577 150.8452 136° Southeast 105 121 2,500 -360 Descending Aus ATC (RADAR)
06:46AM -33.8682 150.8640 124° Southeast 113 130 2,200 -720 Descending Aus ATC (RADAR)
06:47AM -33.8762 150.8857 114° Southeast 117 135 1,700 -780 Descending Aus ATC (RADAR)
06:47AM -33.8851 150.9066 117° Southeast 116 133 1,300 -600 Descending Aus ATC (RADAR)
06:48AM -33.8923 150.9238 117° Southeast 113 130 1,100 -480 Descending Aus ATC (RADAR)
06:48AM -33.9011 150.9434 118° Southeast 111 128 800 -540 Descending Aus ATC (RADAR)
06:49AM -33.9079 150.9591 118° Southeast 87 100 500 -540 Descending Aus ATC (RADAR)
06:49AM -33.9135 150.9717 118° Southeast 73 84 200 -540 Descending Aus ATC (RADAR)